Time;durP1;ratioP1;P1;durP2;ratioP2;P2;SDS_P1;SDS_P2;PMS_P1;PMS_P2;Temp;Humidity;BMP_temperature;BMP_pressure;BME280_temperature;BME280_humidity;BME280_pressure;Samples;Min_cycle;Max_cycle;Signal;HPM_P1;HPM_P2
2021/03/06 00:00:37;;;;;;;21.35;11.20;;;204.80;1638.40;;;;;;4863362;29;20033;-75
2021/03/06 00:03:03;;;;;;;23.27;13.05;;;204.80;1638.40;;;;;;4863309;29;20037;-74
2021/03/06 00:05:29;;;;;;;20.35;12.18;;;204.80;1638.40;;;;;;4862469;29;20021;-68
2021/03/06 00:07:55;;;;;;;19.80;11.80;;;204.80;1638.40;;;;;;4862719;29;20425;-71
2021/03/06 00:10:21;;;;;;;23.67;12.32;;;204.80;1638.40;;;;;;4862687;29;20026;-74
2021/03/06 00:12:48;;;;;;;26.58;12.73;;;180.10;1612.80;;;;;;4862979;29;20093;-71
2021/03/06 00:15:23;;;;;;;22.30;11.90;;;180.10;1612.80;;;;;;4861954;29;20041;-67
2021/03/06 00:17:48;;;;;;;22.75;11.90;;;180.10;1612.80;;;;;;4862707;29;20507;-72
2021/03/06 00:20:14;;;;;;;22.33;11.73;;;180.10;1612.80;;;;;;4863575;29;20152;-62
2021/03/06 00:22:40;;;;;;;19.73;10.65;;;180.10;1612.80;;;;;;4862669;29;20038;-61
2021/03/06 00:25:09;;;;;;;19.77;11.15;;;180.10;1612.80;;;;;;4863483;29;20033;-88
2021/03/06 00:27:36;;;;;;;20.02;11.25;;;180.00;1587.20;;;;;;4863646;29;20317;-63
2021/03/06 00:30:05;;;;;;;19.17;10.43;;;180.10;1612.80;;;;;;4862692;29;20029;-64
2021/03/06 00:32:31;;;;;;;18.73;10.30;;;180.00;1587.20;;;;;;4862995;29;20536;-65
2021/03/06 00:34:57;;;;;;;13.48;9.10;;;180.00;1587.20;;;;;;4862794;29;20105;-71
2021/03/06 00:37:22;;;;;;;16.75;9.02;;;180.00;1587.20;;;;;;4861883;29;20029;-68
2021/03/06 00:39:48;;;;;;;16.92;9.23;;;180.00;1587.20;;;;;;4861091;29;20038;-61
2021/03/06 00:42:14;;;;;;;15.38;8.57;;;179.90;1587.20;;;;;;4861189;29;20048;-62
2021/03/06 00:44:39;;;;;;;17.20;9.15;;;179.90;1587.20;;;;;;4862801;29;20472;-64
2021/03/06 00:47:05;;;;;;;17.98;9.65;;;179.90;1587.20;;;;;;4864384;29;20045;-71
2021/03/06 00:49:31;;;;;;;14.02;9.18;;;179.80;1587.20;;;;;;4865410;29;20429;-65
2021/03/06 00:51:56;;;;;;;15.00;9.68;;;179.90;1587.20;;;;;;4862268;29;20400;-69
2021/03/06 00:54:22;;;;;;;16.60;9.52;;;179.90;1561.60;;;;;;4871959;29;20376;-73
2021/03/06 00:56:48;;;;;;;16.02;9.43;;;179.80;1561.60;;;;;;4881055;29;20464;-72
2021/03/06 00:59:13;;;;;;;14.55;8.75;;;179.80;1561.60;;;;;;4872185;29;20025;-71
2021/03/06 01:01:39;;;;;;;15.65;8.85;;;179.80;1561.60;;;;;;4862226;29;20464;-74
2021/03/06 01:04:05;;;;;;;13.05;8.63;;;179.80;1561.60;;;;;;4862094;29;20025;-74
2021/03/06 01:06:31;;;;;;;15.55;9.15;;;179.70;1561.60;;;;;;4862142;29;20049;-62
2021/03/06 01:08:57;;;;;;;14.25;9.55;;;179.70;1561.60;;;;;;4862002;29;20037;-75
2021/03/06 01:11:22;;;;;;;16.88;10.30;;;179.70;1561.60;;;;;;4862281;29;20038;-67
2021/03/06 01:13:48;;;;;;;16.05;9.70;;;179.60;1561.60;;;;;;4862014;29;20101;-65
2021/03/06 01:16:14;;;;;;;13.80;8.80;;;179.60;1561.60;;;;;;4860805;29;20041;-62
2021/03/06 01:18:40;;;;;;;15.43;9.27;;;179.60;1561.60;;;;;;4862541;29;20033;-71
2021/03/06 01:21:05;;;;;;;16.80;9.60;;;179.60;1561.60;;;;;;4865713;29;20040;-62
2021/03/06 01:23:31;;;;;;;13.48;9.20;;;179.50;1561.60;;;;;;4862041;29;20397;-69
2021/03/06 01:25:57;;;;;;;20.35;9.60;;;179.50;1561.60;;;;;;4861617;29;20467;-72
2021/03/06 01:28:22;;;;;;;14.63;9.45;;;179.50;1561.60;;;;;;4875089;29;20084;-70
2021/03/06 01:30:48;;;;;;;14.35;9.38;;;179.50;1561.60;;;;;;4874909;29;20033;-71
2021/03/06 01:33:15;;;;;;;16.40;9.35;;;179.40;1561.60;;;;;;4861841;29;20049;-71
2021/03/06 01:35:40;;;;;;;16.30;9.32;;;179.40;1561.60;;;;;;4873008;29;20033;-72
2021/03/06 01:38:06;;;;;;;15.40;9.18;;;179.40;1561.60;;;;;;4880186;29;20085;-71
2021/03/06 01:40:35;;;;;;;17.35;9.30;;;179.30;1561.60;;;;;;4880330;29;20452;-71
2021/03/06 01:43:10;;;;;;;22.13;10.27;;;179.30;1561.60;;;;;;4880579;29;20026;-72
2021/03/06 01:45:36;;;;;;;;;;;179.20;1561.60;;;;;;4880878;29;20047;-72
2021/03/06 01:48:02;;;;;;;15.45;9.63;;;179.20;1561.60;;;;;;4880545;29;19908;-72
2021/03/06 01:50:31;;;;;;;18.20;10.05;;;154.50;1561.60;;;;;;4880449;29;20447;-71
2021/03/06 01:52:58;;;;;;;16.63;9.82;;;154.50;1587.20;;;;;;4880225;29;20045;-70
2021/03/06 01:55:25;;;;;;;17.55;10.18;;;154.50;1587.20;;;;;;4880212;29;20080;-72
2021/03/06 01:57:52;;;;;;;15.75;9.80;;;154.50;1587.20;;;;;;4880546;29;20412;-70
2021/03/06 02:00:20;;;;;;;20.85;10.38;;;154.40;1587.20;;;;;;4880264;29;20029;-80
2021/03/06 02:02:47;;;;;;;15.93;9.48;;;154.40;1587.20;;;;;;4880585;29;20029;-77
2021/03/06 02:05:14;;;;;;;17.02;10.48;;;154.50;1587.20;;;;;;4880656;29;20091;-77
2021/03/06 02:07:39;;;;;;;16.70;9.80;;;154.40;1561.60;;;;;;4879883;29;20036;-78
2021/03/06 02:10:06;;;;;;;15.43;9.77;;;154.40;1587.20;;;;;;4880942;29;20040;-78
2021/03/06 02:12:58;;;;;;;18.48;10.50;;;154.40;1561.60;;;;;;4880661;29;20049;-77
2021/03/06 02:15:53;;;;;;;16.17;10.23;;;154.40;1561.60;;;;;;4880405;29;20041;-79
2021/03/06 02:18:26;;;;;;;17.92;10.90;;;154.40;1561.60;;;;;;4880467;29;20036;-73
2021/03/06 02:21:00;;;;;;;16.92;10.57;;;154.40;1561.60;;;;;;4879798;29;20044;-74
2021/03/06 02:23:43;;;;;;;19.45;11.90;;;154.40;1561.60;;;;;;4880078;29;20185;-73
2021/03/06 02:26:44;;;;;;;15.82;10.80;;;154.40;1587.20;;;;;;4880138;29;20053;-73
2021/03/06 02:29:38;;;;;;;15.57;10.15;;;154.30;1561.60;;;;;;4880058;29;20487;-74
2021/03/06 02:32:15;;;;;;;14.67;9.30;;;154.30;1561.60;;;;;;4880163;29;20041;-75
2021/03/06 02:34:47;;;;;;;17.98;10.32;;;154.30;1587.20;;;;;;4880207;29;20276;-74
2021/03/06 02:37:15;;;;;;;13.23;9.20;;;154.30;1587.20;;;;;;4880221;29;20032;-77
2021/03/06 02:39:45;;;;;;;15.60;9.60;;;154.30;1587.20;;;;;;4880098;29;20468;-75
2021/03/06 02:42:16;;;;;;;14.52;9.80;;;154.30;1587.20;;;;;;4879878;29;20031;-74
2021/03/06 02:44:43;;;;;;;14.98;8.82;;;154.30;1561.60;;;;;;4879855;29;20030;-75
2021/03/06 02:47:09;;;;;;;13.60;8.95;;;154.30;1561.60;;;;;;4879860;29;20064;-75
2021/03/06 02:49:35;;;;;;;13.60;9.55;;;154.30;1561.60;;;;;;4879897;29;20025;-75
2021/03/06 02:52:01;;;;;;;13.55;9.02;;;154.30;1561.60;;;;;;4879649;29;20444;-71
2021/03/06 02:54:27;;;;;;;14.35;9.05;;;154.30;1561.60;;;;;;4879953;29;20112;-73
2021/03/06 02:56:54;;;;;;;16.38;10.02;;;154.30;1561.60;;;;;;4879728;29;20071;-73
2021/03/06 02:59:48;;;;;;;14.60;9.20;;;154.30;1561.60;;;;;;4879850;29;20081;-72
2021/03/06 03:02:43;;;;;;;17.33;9.05;;;154.30;1536.00;;;;;;4879716;29;20060;-72
2021/03/06 03:05:18;;;;;;;16.25;9.55;;;154.30;1536.00;;;;;;4879761;29;20025;-75
2021/03/06 03:07:43;;;;;;;;;;;154.30;1536.00;;;;;;4880122;29;20060;-74
2021/03/06 03:10:13;;;;;;;14.20;8.35;;;154.30;1536.00;;;;;;4879818;29;20275;-73
2021/03/06 03:12:46;;;;;;;16.88;8.27;;;154.30;1536.00;;;;;;4879606;29;20048;-73
2021/03/06 03:15:17;;;;;;;12.82;8.43;;;154.20;1536.00;;;;;;4879552;29;20108;-74
2021/03/06 03:17:48;;;;;;;11.63;6.70;;;154.20;1536.00;;;;;;4880658;29;20052;-76
2021/03/06 03:20:24;;;;;;;12.82;7.57;;;154.20;1536.00;;;;;;4883334;29;20036;-75
2021/03/06 03:22:55;;;;;;;12.45;7.00;;;154.20;1536.00;;;;;;4882804;29;20452;-71
2021/03/06 03:25:21;;;;;;;12.77;6.93;;;154.20;1536.00;;;;;;4883032;29;20124;-72
2021/03/06 03:27:50;;;;;;;10.77;7.28;;;154.20;1536.00;;;;;;4882500;29;20376;-73
2021/03/06 03:30:17;;;;;;;11.63;7.25;;;154.20;1510.40;;;;;;4882982;29;20156;-73
2021/03/06 03:32:49;;;;;;;13.52;8.35;;;154.30;1510.40;;;;;;4882708;29;20059;-73
2021/03/06 03:35:17;;;;;;;13.63;7.88;;;154.30;1536.00;;;;;;4882769;29;20120;-72
2021/03/06 03:37:45;;;;;;;15.60;8.98;;;154.20;1536.00;;;;;;4882826;29;20090;-72
2021/03/06 03:40:16;;;;;;;16.13;8.13;;;154.30;1536.00;;;;;;4882697;29;20044;-73
2021/03/06 03:42:42;;;;;;;13.40;7.55;;;154.30;1536.00;;;;;;4882746;29;20548;-73
2021/03/06 03:45:10;;;;;;;13.20;7.75;;;154.20;1510.40;;;;;;4882616;29;20103;-73
2021/03/06 03:47:38;;;;;;;12.65;7.32;;;154.30;1510.40;;;;;;4882131;29;20088;-73
2021/03/06 03:50:07;;;;;;;11.45;6.57;;;154.30;1510.40;;;;;;4882449;29;20104;-74
2021/03/06 03:52:36;;;;;;;10.77;6.78;;;154.30;1510.40;;;;;;4882375;29;20033;-74
2021/03/06 03:55:04;;;;;;;10.45;6.90;;;154.30;1484.80;;;;;;4882574;29;20029;-74
2021/03/06 03:57:30;;;;;;;12.35;7.18;;;154.30;1484.80;;;;;;4882523;29;20089;-73
2021/03/06 03:59:56;;;;;;;16.92;7.95;;;154.30;1484.80;;;;;;4882203;29;20029;-75
2021/03/06 04:02:23;;;;;;;12.23;7.15;;;154.30;1484.80;;;;;;4882415;29;20032;-74
2021/03/06 04:04:49;;;;;;;11.10;6.70;;;154.30;1459.20;;;;;;4882326;29;20056;-74
2021/03/06 04:07:14;;;;;;;12.52;7.45;;;154.30;1484.80;;;;;;4881356;29;20068;-74
2021/03/06 04:09:40;;;;;;;13.90;7.60;;;154.30;1484.80;;;;;;4882172;29;20029;-74
2021/03/06 04:12:06;;;;;;;20.20;8.32;;;154.20;1459.20;;;;;;4882007;29;20044;-74
2021/03/06 04:14:32;;;;;;;14.25;7.32;;;154.20;1484.80;;;;;;4882017;29;20476;-75
2021/03/06 04:16:58;;;;;;;12.90;6.63;;;154.20;1459.20;;;;;;4882330;29;20036;-75
2021/03/06 04:19:23;;;;;;;9.88;5.93;;;154.20;1484.80;;;;;;4882239;29;20375;-74
2021/03/06 04:21:49;;;;;;;9.57;5.90;;;154.20;1459.20;;;;;;4882044;29;20029;-74
2021/03/06 04:24:15;;;;;;;10.07;6.50;;;154.20;1459.20;;;;;;4882316;29;20033;-75
2021/03/06 04:26:40;;;;;;;13.95;6.55;;;154.20;1459.20;;;;;;4882016;29;20044;-76
2021/03/06 04:29:06;;;;;;;14.70;7.43;;;154.20;1459.20;;;;;;4881431;29;20039;-75
2021/03/06 04:31:31;;;;;;;13.02;7.03;;;154.20;1484.80;;;;;;4882357;29;20041;-80
2021/03/06 04:33:57;;;;;;;11.18;6.65;;;154.20;1459.20;;;;;;4882118;29;20041;-78
2021/03/06 04:36:23;;;;;;;16.52;8.70;;;154.20;1459.20;;;;;;4881994;29;20025;-77
2021/03/06 04:38:48;;;;;;;16.35;8.93;;;154.20;1459.20;;;;;;4881517;29;20028;-76
2021/03/06 04:41:14;;;;;;;15.00;8.23;;;154.10;1459.20;;;;;;4881722;29;20036;-76
2021/03/06 04:43:40;;;;;;;15.93;7.82;;;154.10;1459.20;;;;;;4881722;29;20061;-75
2021/03/06 04:46:06;;;;;;;14.05;7.43;;;154.10;1459.20;;;;;;4881993;29;20029;-75
2021/03/06 04:48:31;;;;;;;10.13;6.40;;;154.10;1459.20;;;;;;4882254;29;20044;-76
2021/03/06 04:50:57;;;;;;;12.32;6.50;;;154.10;1433.60;;;;;;4881559;29;20468;-77
2021/03/06 04:53:23;;;;;;;11.65;6.00;;;154.10;1433.60;;;;;;4881698;29;20112;-74
2021/03/06 04:55:48;;;;;;;10.77;5.60;;;154.10;1459.20;;;;;;4881695;29;20049;-75
2021/03/06 04:58:14;;;;;;;11.27;5.20;;;154.10;1459.20;;;;;;4881368;29;20132;-75
2021/03/06 05:00:40;;;;;;;12.57;5.55;;;154.10;1459.20;;;;;;4881515;29;20033;-73
2021/03/06 05:03:05;;;;;;;10.00;5.10;;;154.10;1433.60;;;;;;4881068;29;20038;-77
2021/03/06 05:05:31;;;;;;;8.75;4.85;;;154.10;1433.60;;;;;;4881432;29;20029;-77
2021/03/06 05:07:57;;;;;;;7.43;4.15;;;154.10;1433.60;;;;;;4881233;29;20391;-76
2021/03/06 05:10:24;;;;;;;9.85;5.13;;;154.10;1433.60;;;;;;4881396;29;20033;-75
2021/03/06 05:12:50;;;;;;;17.88;5.75;;;154.10;1433.60;;;;;;4881001;29;20433;-76
2021/03/06 05:15:16;;;;;;;8.05;5.30;;;154.10;1433.60;;;;;;4864550;29;20037;-74
2021/03/06 05:17:41;;;;;;;9.65;5.32;;;154.10;1433.60;;;;;;4881171;29;20086;-75
2021/03/06 05:20:07;;;;;;;10.98;5.00;;;154.10;1433.60;;;;;;4881221;29;20049;-76
2021/03/06 05:22:33;;;;;;;8.63;4.47;;;154.10;1433.60;;;;;;4881304;29;20029;-77
2021/03/06 05:24:59;;;;;;;14.95;5.07;;;154.00;1433.60;;;;;;4881129;29;20430;-78
2021/03/06 05:27:25;;;;;;;10.02;4.68;;;154.00;1408.00;;;;;;4880988;29;20029;-76
2021/03/06 05:29:50;;;;;;;11.88;5.30;;;154.00;1408.00;;;;;;4880898;29;20040;-76
2021/03/06 05:32:16;;;;;;;13.45;6.13;;;154.00;1433.60;;;;;;4880834;29;20041;-76
2021/03/06 05:34:42;;;;;;;12.98;5.78;;;154.00;1433.60;;;;;;4881122;29;20037;-76
2021/03/06 05:37:08;;;;;;;10.68;5.70;;;154.10;1408.00;;;;;;4881078;29;20484;-77
2021/03/06 05:39:33;;;;;;;8.30;5.03;;;154.00;1408.00;;;;;;4880891;29;20041;-76
2021/03/06 05:41:59;;;;;;;13.57;6.32;;;154.00;1408.00;;;;;;4880211;29;20028;-76
2021/03/06 05:44:25;;;;;;;17.92;7.35;;;154.00;1408.00;;;;;;4880974;29;20052;-77
2021/03/06 05:46:51;;;;;;;14.05;7.88;;;154.00;1408.00;;;;;;4880951;29;20435;-76
2021/03/06 05:49:17;;;;;;;13.32;7.78;;;154.00;1408.00;;;;;;4880929;29;20081;-77
2021/03/06 05:51:45;;;;;;;17.38;8.18;;;154.00;1382.40;;;;;;4880389;29;20045;-71
2021/03/06 05:54:12;;;;;;;15.35;8.00;;;154.10;1408.00;;;;;;4880628;29;20033;-80
2021/03/06 05:56:41;;;;;;;17.77;7.80;;;154.10;1382.40;;;;;;4880735;29;20044;-79
2021/03/06 05:59:09;;;;;;;17.60;8.15;;;154.10;1408.00;;;;;;4880965;29;20476;-81
2021/03/06 06:01:37;;;;;;;26.90;10.75;;;154.10;1408.00;;;;;;4880651;29;20036;-76
2021/03/06 06:04:04;;;;;;;25.10;11.15;;;154.10;1408.00;;;;;;4880854;29;20029;-76
2021/03/06 06:06:32;;;;;;;23.90;12.13;;;154.20;1408.00;;;;;;4880361;29;20029;-76
2021/03/06 06:08:58;;;;;;;22.55;11.25;;;154.20;1408.00;;;;;;4880548;29;20057;-75
2021/03/06 06:11:27;;;;;;;20.70;9.88;;;154.20;1408.00;;;;;;4880464;29;20037;-75
2021/03/06 06:13:55;;;;;;;18.58;10.05;;;154.20;1408.00;;;;;;4880258;29;20033;-74
2021/03/06 06:16:21;;;;;;;19.10;10.13;;;154.30;1382.40;;;;;;4880325;29;20029;-74
2021/03/06 06:18:49;;;;;;;22.70;10.98;;;154.30;1408.00;;;;;;4880244;29;20104;-73
2021/03/06 06:21:48;;;;;;;24.42;10.63;;;154.30;1382.40;;;;;;4880079;29;20113;-73
2021/03/06 06:24:19;;;;;;;23.90;11.27;;;154.40;1382.40;;;;;;4880541;29;20029;-71
2021/03/06 06:26:59;;;;;;;25.38;11.95;;;154.40;1382.40;;;;;;4880053;29;20036;-72
2021/03/06 06:29:37;;;;;;;22.75;10.52;;;154.40;1382.40;;;;;;4880327;29;20361;-76
2021/03/06 06:32:04;;;;;;;17.77;9.55;;;154.50;1356.80;;;;;;4870114;29;20045;-72
2021/03/06 06:34:30;;;;;;;14.75;8.05;;;154.50;1356.80;;;;;;4861461;29;20054;-72
2021/03/06 06:37:16;;;;;;;11.80;6.88;;;154.50;1356.80;;;;;;4861693;29;20025;-77
2021/03/06 06:39:43;;;;;;;15.18;7.20;;;154.50;1331.20;;;;;;4861310;29;20105;-74
2021/03/06 06:42:09;;;;;;;12.70;5.68;;;179.20;1331.20;;;;;;4861451;29;20025;-75
2021/03/06 06:44:36;;;;;;;15.30;5.80;;;179.20;1305.60;;;;;;4860144;29;20166;-74
2021/03/06 06:47:16;;;;;;;14.98;6.10;;;179.20;1331.20;;;;;;4861276;29;20488;-75
2021/03/06 06:49:53;;;;;;;14.55;7.80;;;179.20;1280.00;;;;;;4861566;29;20052;-75
2021/03/06 06:52:21;;;;;;;17.52;8.73;;;179.30;1280.00;;;;;;4861566;29;20384;-75
2021/03/06 06:54:58;;;;;;;22.80;10.10;;;179.30;1254.40;;;;;;4865010;29;20033;-74
2021/03/06 06:57:28;;;;;;;15.88;8.05;;;179.30;1254.40;;;;;;4864649;29;20117;-70
2021/03/06 07:00:09;;;;;;;14.55;5.63;;;179.30;1228.80;;;;;;4864936;29;20383;-73
2021/03/06 07:02:35;;;;;;;15.65;7.10;;;179.40;1228.80;;;;;;4864926;29;20460;-73
2021/03/06 07:05:05;;;;;;;19.38;9.20;;;179.40;1203.20;;;;;;4864770;29;20036;-73
2021/03/06 07:07:42;;;;;;;15.27;8.60;;;179.40;1203.20;;;;;;4864649;29;20041;-72
2021/03/06 07:10:17;;;;;;;13.55;6.13;;;179.40;1203.20;;;;;;4864648;29;20025;-73
2021/03/06 07:13:01;;;;;;;10.90;5.90;;;179.50;1177.60;;;;;;4864306;29;20035;-70
2021/03/06 07:15:29;;;;;;;14.63;7.05;;;179.50;1177.60;;;;;;4864749;29;20389;-71
2021/03/06 07:18:00;;;;;;;13.98;8.02;;;179.50;1152.00;;;;;;4864714;29;20034;-72
2021/03/06 07:20:37;;;;;;;18.10;8.82;;;179.60;1152.00;;;;;;4863778;29;20052;-67
2021/03/06 07:23:20;;;;;;;17.85;8.77;;;179.70;1152.00;;;;;;4863860;29;20029;-69
2021/03/06 07:25:49;;;;;;;17.58;8.00;;;179.70;1152.00;;;;;;4863599;29;20058;-68
2021/03/06 07:28:15;;;;;;;19.20;9.98;;;179.80;1152.00;;;;;;4863136;29;20040;-72
2021/03/06 07:30:41;;;;;;;32.70;16.55;;;179.80;1152.00;;;;;;4863032;29;20112;-70
2021/03/06 07:33:08;;;;;;;32.38;17.27;;;179.90;1126.40;;;;;;4862465;29;20060;-68
2021/03/06 07:35:39;;;;;;;30.65;14.85;;;180.00;1126.40;;;;;;4862827;29;20041;-70
2021/03/06 07:38:12;;;;;;;27.27;11.00;;;180.00;1100.80;;;;;;4864297;29;20148;-70
2021/03/06 07:40:46;;;;;;;27.95;11.50;;;180.10;1100.80;;;;;;4864040;29;20029;-70
2021/03/06 07:43:21;;;;;;;17.15;8.73;;;204.80;1126.40;;;;;;4864157;29;20061;-69
2021/03/06 07:45:50;;;;;;;16.02;7.82;;;204.80;1126.40;;;;;;4864648;29;20025;-70
2021/03/06 07:48:19;;;;;;;15.70;8.10;;;204.90;1126.40;;;;;;4863917;29;20033;-68
2021/03/06 07:50:53;;;;;;;17.58;7.90;;;204.90;1100.80;;;;;;4864010;29;20033;-70
2021/03/06 07:53:20;;;;;;;21.33;10.15;;;204.90;1100.80;;;;;;4863860;29;20045;-70
2021/03/06 07:55:47;;;;;;;20.10;8.93;;;205.10;1100.80;;;;;;4864054;29;20038;-70
2021/03/06 07:58:12;;;;;;;18.42;8.77;;;205.30;1049.60;;;;;;4863844;29;20030;-70
2021/03/06 08:00:41;;;;;;;27.30;13.07;;;205.50;1075.20;;;;;;4863937;29;20109;-70
2021/03/06 08:03:28;;;;;;;19.77;9.55;;;205.70;1049.60;;;;;;4863917;29;20037;-70
2021/03/06 08:06:18;;;;;;;22.90;9.98;;;230.70;1024.00;;;;;;4863084;29;20029;-70
2021/03/06 08:08:47;;;;;;;15.57;7.90;;;231.00;998.40;;;;;;4863489;29;20434;-70
2021/03/06 08:11:15;;;;;;;18.70;8.52;;;231.20;972.80;;;;;;4863683;29;20353;-70
2021/03/06 08:13:57;;;;;;;18.83;8.07;;;231.30;972.80;;;;;;4863620;29;20392;-70
2021/03/06 08:16:22;;;;;;;16.10;8.40;;;231.30;972.80;;;;;;4863678;29;20057;-70
2021/03/06 08:18:53;;;;;;;18.58;8.05;;;231.30;947.20;;;;;;4863697;29;20060;-71
2021/03/06 08:21:44;;;;;;;12.65;6.68;;;231.30;972.80;;;;;;4863184;29;20044;-69
2021/03/06 08:24:16;;;;;;;13.18;6.13;;;256.00;921.60;;;;;;4863227;29;20383;-70
2021/03/06 08:26:42;;;;;;;16.52;8.30;;;256.20;921.60;;;;;;4863519;29;20036;-70
2021/03/06 08:29:23;;;;;;;11.77;7.20;;;256.60;896.00;;;;;;4863124;29;20034;-71
2021/03/06 08:32:04;;;;;;;15.73;7.28;;;256.90;870.40;;;;;;4863140;29;20069;-69
2021/03/06 08:34:47;;;;;;;20.77;9.95;;;281.70;870.40;;;;;;4862925;29;20084;-71
2021/03/06 08:37:13;;;;;;;30.98;15.13;;;281.90;844.80;;;;;;4863153;29;20033;-70
2021/03/06 08:39:46;;;;;;;30.17;16.63;;;281.90;819.20;;;;;;4863188;29;20077;-70
2021/03/06 08:42:14;;;;;;;23.85;11.70;;;282.10;819.20;;;;;;4863111;29;20077;-70
2021/03/06 08:44:40;;;;;;;15.80;8.75;;;282.30;819.20;;;;;;4863085;29;20033;-71
2021/03/06 08:47:07;;;;;;;18.08;7.88;;;282.50;793.60;;;;;;4863093;29;20483;-71
2021/03/06 08:49:34;;;;;;;13.75;5.60;;;307.30;819.20;;;;;;4862807;29;20033;-71
2021/03/06 08:52:00;;;;;;;12.63;4.40;;;307.50;768.00;;;;;;4862769;29;20037;-70
2021/03/06 08:54:26;;;;;;;7.68;4.05;;;307.60;716.80;;;;;;4862917;29;20035;-71
2021/03/06 08:56:52;;;;;;;11.80;5.00;;;307.80;716.80;;;;;;4862816;29;20033;-70
2021/03/06 08:59:36;;;;;;;9.93;5.40;;;307.90;742.40;;;;;;4862833;29;20057;-71
2021/03/06 09:02:16;;;;;;;11.57;5.20;;;308.10;716.80;;;;;;4862754;29;20102;-70
2021/03/06 09:04:43;;;;;;;13.75;5.75;;;332.90;742.40;;;;;;4862833;29;20077;-71
2021/03/06 09:07:25;;;;;;;8.88;5.65;;;333.10;716.80;;;;;;4862607;29;20472;-71
2021/03/06 09:09:51;;;;;;;11.10;5.13;;;333.20;716.80;;;;;;4862231;29;20349;-69
2021/03/06 09:12:17;;;;;;;11.30;4.55;;;333.40;716.80;;;;;;4862126;29;20048;-71
2021/03/06 09:14:43;;;;;;;9.73;5.55;;;333.50;665.60;;;;;;4862327;29;20025;-71
2021/03/06 09:17:12;;;;;;;42.85;7.20;;;333.70;665.60;;;;;;4862128;29;20033;-70
2021/03/06 09:19:38;;;;;;;39.30;7.38;;;358.40;716.80;;;;;;4862445;29;20026;-69
2021/03/06 09:22:06;;;;;;;16.75;10.00;;;358.60;691.20;;;;;;4862243;29;20030;-72
2021/03/06 09:24:49;;;;;;;21.73;6.80;;;358.60;640.00;;;;;;4862044;29;20034;-70
2021/03/06 09:27:16;;;;;;;18.58;7.70;;;358.70;640.00;;;;;;4862415;29;20034;-71
2021/03/06 09:29:44;;;;;;;11.88;7.30;;;358.70;640.00;;;;;;4862110;29;20483;-71
2021/03/06 09:32:11;;;;;;;15.98;6.53;;;358.80;640.00;;;;;;4862313;29;20044;-71
2021/03/06 09:34:38;;;;;;;14.45;5.05;;;358.90;640.00;;;;;;4862093;29;20057;-71
2021/03/06 09:37:18;;;;;;;8.93;5.40;;;358.90;640.00;;;;;;4861893;29;20029;-71
2021/03/06 09:39:44;;;;;;;9.55;6.00;;;359.10;640.00;;;;;;4862141;29;20383;-71
2021/03/06 09:42:16;;;;;;;17.20;7.75;;;359.20;640.00;;;;;;4862330;29;20036;-71
2021/03/06 09:44:48;;;;;;;13.15;7.45;;;359.20;614.40;;;;;;4861911;29;20082;-71
2021/03/06 09:47:22;;;;;;;12.18;7.05;;;359.30;614.40;;;;;;4862044;29;20037;-72
2021/03/06 09:49:48;;;;;;;13.27;7.07;;;384.00;614.40;;;;;;4861438;29;20112;-71
2021/03/06 09:52:14;;;;;;;14.05;8.00;;;384.10;588.80;;;;;;4861846;29;20121;-72
2021/03/06 09:54:39;;;;;;;11.65;5.88;;;384.20;588.80;;;;;;4862069;29;20487;-72
2021/03/06 09:57:06;;;;;;;15.57;6.70;;;384.30;588.80;;;;;;4862105;29;20026;-71
2021/03/06 09:59:38;;;;;;;10.45;6.00;;;384.40;588.80;;;;;;4861761;29;20036;-70
2021/03/06 10:02:08;;;;;;;8.00;4.15;;;384.50;588.80;;;;;;4861987;29;20029;-72
2021/03/06 10:04:35;;;;;;;5.75;4.07;;;384.50;588.80;;;;;;4861767;29;20089;-72
2021/03/06 10:07:07;;;;;;;7.95;4.72;;;384.50;563.20;;;;;;4861726;29;20388;-72
2021/03/06 10:09:33;;;;;;;12.05;4.68;;;384.50;537.60;;;;;;4861526;29;20025;-71
2021/03/06 10:12:13;;;;;;;11.73;7.88;;;384.50;563.20;;;;;;4861708;29;20508;-72
2021/03/06 10:14:39;;;;;;;19.92;10.98;;;384.60;537.60;;;;;;4861349;29;20089;-69
2021/03/06 10:17:06;;;;;;;20.33;11.45;;;384.60;563.20;;;;;;4861632;29;20029;-71
2021/03/06 10:19:53;;;;;;;14.02;9.68;;;384.60;563.20;;;;;;4861542;29;20121;-71
2021/03/06 10:22:20;;;;;;;12.13;7.93;;;384.70;563.20;;;;;;4861470;29;20037;-70
2021/03/06 10:25:03;;;;;;;11.80;7.05;;;384.80;563.20;;;;;;4861446;29;20025;-70
2021/03/06 10:27:43;;;;;;;17.83;10.15;;;384.80;563.20;;;;;;4860953;29;20496;-71
2021/03/06 10:30:11;;;;;;;20.80;11.93;;;384.90;563.20;;;;;;4861563;29;20081;-70
2021/03/06 10:32:53;;;;;;;14.73;8.73;;;409.60;588.80;;;;;;4861264;29;20061;-70
2021/03/06 10:35:49;;;;;;;13.93;6.70;;;409.70;563.20;;;;;;4861437;29;20033;-72
2021/03/06 10:38:29;;;;;;;11.88;6.53;;;409.70;563.20;;;;;;4840734;29;20038;-71
2021/03/06 10:40:59;;;;;;;12.00;5.45;;;409.70;563.20;;;;;;4840872;29;20030;-71
2021/03/06 10:43:40;;;;;;;8.43;5.30;;;409.70;563.20;;;;;;4840986;29;20069;-70
2021/03/06 10:46:21;;;;;;;15.20;6.85;;;409.70;563.20;;;;;;4840876;29;20381;-70
2021/03/06 10:48:57;;;;;;;13.73;7.75;;;409.80;563.20;;;;;;4840837;29;20042;-70
2021/03/06 10:51:38;;;;;;;18.33;8.13;;;409.80;563.20;;;;;;4840540;29;20034;-71
2021/03/06 10:54:06;;;;;;;16.40;8.48;;;409.80;563.20;;;;;;4840822;29;20034;-70
2021/03/06 10:56:33;;;;;;;21.80;11.80;;;409.90;563.20;;;;;;4840866;29;20366;-71
2021/03/06 10:58:58;;;;;;;60.85;30.55;;;410.00;563.20;;;;;;4825432;29;20120;-71
2021/03/06 11:01:24;;;;;;;63.40;29.88;;;410.10;563.20;;;;;;4840781;29;20440;-70
2021/03/06 11:03:51;;;;;;;50.33;21.30;;;410.20;563.20;;;;;;4840533;29;20030;-69
2021/03/06 11:06:18;;;;;;;57.50;26.17;;;410.20;537.60;;;;;;4840491;29;20211;-70
2021/03/06 11:09:00;;;;;;;91.18;14.25;;;410.10;563.20;;;;;;4840668;29;20053;-70
2021/03/06 11:11:27;;;;;;;24.92;13.25;;;409.80;563.20;;;;;;4840539;29;20600;-70
2021/03/06 11:13:53;;;;;;;36.60;18.33;;;409.70;537.60;;;;;;4844211;29;20067;-70
2021/03/06 11:16:39;;;;;;;44.70;20.45;;;409.60;537.60;;;;;;4860827;29;20090;-68
2021/03/06 11:19:05;;;;;;;21.38;10.18;;;384.70;512.00;;;;;;4861296;29;20363;-70
2021/03/06 11:21:32;;;;;;;9.30;6.18;;;384.40;512.00;;;;;;4860872;29;20025;-70
2021/03/06 11:23:58;;;;;;;15.98;8.00;;;384.10;537.60;;;;;;4859909;29;20128;-71
2021/03/06 11:26:23;;;;;;;13.80;8.00;;;359.10;537.60;;;;;;4860309;29;20432;-71
2021/03/06 11:28:49;;;;;;;13.63;6.35;;;359.10;563.20;;;;;;4860812;29;20057;-70
2021/03/06 11:31:15;;;;;;;10.02;5.30;;;359.10;537.60;;;;;;4860836;29;20057;-71
2021/03/06 11:33:41;;;;;;;11.77;6.70;;;359.10;537.60;;;;;;4860809;29;20053;-71
2021/03/06 11:36:07;;;;;;;15.68;8.23;;;359.30;537.60;;;;;;4860838;29;20469;-71
2021/03/06 11:38:32;;;;;;;12.80;7.55;;;359.30;537.60;;;;;;4860484;29;20029;-71
2021/03/06 11:40:58;;;;;;;8.65;5.97;;;384.00;537.60;;;;;;4863456;29;20036;-71
2021/03/06 11:43:24;;;;;;;8.77;5.55;;;384.00;537.60;;;;;;4864158;29;20029;-71
2021/03/06 11:45:49;;;;;;;11.02;4.40;;;384.00;537.60;;;;;;4863755;29;20495;-71
2021/03/06 11:48:16;;;;;;;8.93;4.22;;;384.20;537.60;;;;;;4863795;29;20033;-76
2021/03/06 11:50:45;;;;;;;14.07;5.30;;;384.30;537.60;;;;;;4863071;29;20112;-71
2021/03/06 11:53:11;;;;;;;9.18;4.70;;;384.40;537.60;;;;;;4862492;29;20042;-68
2021/03/06 11:55:37;;;;;;;6.95;4.28;;;384.50;512.00;;;;;;4863748;29;20025;-67
2021/03/06 11:58:03;;;;;;;6.65;3.50;;;384.50;512.00;;;;;;4864074;29;20165;-69
2021/03/06 12:00:31;;;;;;;6.90;4.18;;;384.40;537.60;;;;;;4864079;29;20060;-71
2021/03/06 12:02:57;;;;;;;10.27;4.72;;;384.40;537.60;;;;;;4864001;29;20044;-71
2021/03/06 12:05:23;;;;;;;9.38;5.93;;;384.60;512.00;;;;;;4863771;29;20034;-71
2021/03/06 12:07:51;;;;;;;9.02;5.32;;;384.80;512.00;;;;;;4863882;29;20037;-72
2021/03/06 12:10:19;;;;;;;10.00;6.00;;;384.70;512.00;;;;;;4863872;29;20082;-71
2021/03/06 12:12:46;;;;;;;8.38;5.22;;;384.70;512.00;;;;;;4863850;29;20037;-70
2021/03/06 12:15:13;;;;;;;9.50;6.10;;;384.80;512.00;;;;;;4863633;29;20033;-71
2021/03/06 12:17:40;;;;;;;9.50;5.95;;;384.70;512.00;;;;;;4862207;29;20037;-67
2021/03/06 12:20:07;;;;;;;10.07;5.10;;;384.50;512.00;;;;;;4863774;29;20033;-77
2021/03/06 12:22:33;;;;;;;8.32;4.70;;;384.30;512.00;;;;;;4860326;29;20033;-77